sensor_id;sensor_type;location;lat;lon;timestamp;temperature;humidity
20891;DHT22;10605;52.968;8.844;2023-05-29T00:02:16;10.80;99.90
20891;DHT22;10605;52.968;8.844;2023-05-29T00:04:42;10.70;99.90
20891;DHT22;10605;52.968;8.844;2023-05-29T00:07:08;10.70;99.90
20891;DHT22;10605;52.968;8.844;2023-05-29T00:09:33;10.50;99.90
20891;DHT22;10605;52.968;8.844;2023-05-29T00:11:59;10.60;99.90
20891;DHT22;10605;52.968;8.844;2023-05-29T00:14:26;10.60;99.90
20891;DHT22;10605;52.968;8.844;2023-05-29T00:16:59;10.50;99.90
20891;DHT22;10605;52.968;8.844;2023-05-29T00:19:30;10.40;99.90
20891;DHT22;10605;52.968;8.844;2023-05-29T00:21:56;10.40;99.90
20891;DHT22;10605;52.968;8.844;2023-05-29T00:24:22;10.30;99.90
20891;DHT22;10605;52.968;8.844;2023-05-29T00:26:48;10.40;99.90
20891;DHT22;10605;52.968;8.844;2023-05-29T00:29:16;10.30;99.90
20891;DHT22;10605;52.968;8.844;2023-05-29T00:31:42;10.30;99.90
20891;DHT22;10605;52.968;8.844;2023-05-29T00:34:07;10.40;99.90
20891;DHT22;10605;52.968;8.844;2023-05-29T00:36:34;10.40;99.90
20891;DHT22;10605;52.968;8.844;2023-05-29T00:39:06;10.40;99.90
20891;DHT22;10605;52.968;8.844;2023-05-29T00:41:32;10.30;99.90
20891;DHT22;10605;52.968;8.844;2023-05-29T00:43:58;10.30;99.90
20891;DHT22;10605;52.968;8.844;2023-05-29T00:46:23;10.20;99.90
20891;DHT22;10605;52.968;8.844;2023-05-29T00:48:49;10.20;99.90
20891;DHT22;10605;52.968;8.844;2023-05-29T00:51:16;10.20;99.90
20891;DHT22;10605;52.968;8.844;2023-05-29T00:53:42;10.20;99.90
20891;DHT22;10605;52.968;8.844;2023-05-29T00:56:12;10.20;99.90
20891;DHT22;10605;52.968;8.844;2023-05-29T00:58:38;10.20;99.90
20891;DHT22;10605;52.968;8.844;2023-05-29T01:01:04;10.20;99.90
20891;DHT22;10605;52.968;8.844;2023-05-29T01:03:32;10.30;99.90
20891;DHT22;10605;52.968;8.844;2023-05-29T01:06:01;10.20;99.90
20891;DHT22;10605;52.968;8.844;2023-05-29T01:08:29;10.30;99.90
20891;DHT22;10605;52.968;8.844;2023-05-29T01:13:49;10.30;99.90
20891;DHT22;10605;52.968;8.844;2023-05-29T01:16:34;10.40;99.90
20891;DHT22;10605;52.968;8.844;2023-05-29T01:19:24;10.40;99.90
20891;DHT22;10605;52.968;8.844;2023-05-29T01:28:00;10.40;99.90
20891;DHT22;10605;52.968;8.844;2023-05-29T01:30:28;10.40;99.90
20891;DHT22;10605;52.968;8.844;2023-05-29T01:32:58;10.30;99.90
20891;DHT22;10605;52.968;8.844;2023-05-29T01:35:32;10.40;99.90
20891;DHT22;10605;52.968;8.844;2023-05-29T01:37:57;10.40;99.90
20891;DHT22;10605;52.968;8.844;2023-05-29T01:40:23;10.30;99.90
20891;DHT22;10605;52.968;8.844;2023-05-29T01:42:49;10.30;99.90
20891;DHT22;10605;52.968;8.844;2023-05-29T01:45:18;10.20;99.90
20891;DHT22;10605;52.968;8.844;2023-05-29T01:47:43;10.30;99.90
20891;DHT22;10605;52.968;8.844;2023-05-29T01:50:21;10.30;99.90
20891;DHT22;10605;52.968;8.844;2023-05-29T01:52:47;10.20;99.90
20891;DHT22;10605;52.968;8.844;2023-05-29T01:55:15;10.10;99.90
20891;DHT22;10605;52.968;8.844;2023-05-29T01:57:46;10.00;99.90
20891;DHT22;10605;52.968;8.844;2023-05-29T02:00:12;10.10;99.90
20891;DHT22;10605;52.968;8.844;2023-05-29T02:02:40;10.10;99.90
20891;DHT22;10605;52.968;8.844;2023-05-29T02:05:07;10.10;99.90
20891;DHT22;10605;52.968;8.844;2023-05-29T02:07:44;10.10;99.90
20891;DHT22;10605;52.968;8.844;2023-05-29T02:10:10;10.10;99.90
20891;DHT22;10605;52.968;8.844;2023-05-29T02:12:38;10.10;99.90
20891;DHT22;10605;52.968;8.844;2023-05-29T02:15:05;10.10;99.90
20891;DHT22;10605;52.968;8.844;2023-05-29T02:17:33;10.00;99.90
20891;DHT22;10605;52.968;8.844;2023-05-29T02:19:59;10.10;99.90
20891;DHT22;10605;52.968;8.844;2023-05-29T02:22:25;10.10;99.90
20891;DHT22;10605;52.968;8.844;2023-05-29T02:24:54;10.10;99.90
20891;DHT22;10605;52.968;8.844;2023-05-29T02:27:22;10.00;99.90
20891;DHT22;10605;52.968;8.844;2023-05-29T02:29:51;10.00;99.90
20891;DHT22;10605;52.968;8.844;2023-05-29T02:32:28;10.00;99.90
20891;DHT22;10605;52.968;8.844;2023-05-29T02:35:00;9.90;99.90
20891;DHT22;10605;52.968;8.844;2023-05-29T02:37:26;9.90;99.90
20891;DHT22;10605;52.968;8.844;2023-05-29T02:39:56;10.00;99.90
20891;DHT22;10605;52.968;8.844;2023-05-29T02:42:22;9.90;99.90
20891;DHT22;10605;52.968;8.844;2023-05-29T02:44:48;9.90;99.90
20891;DHT22;10605;52.968;8.844;2023-05-29T02:47:14;9.90;99.90
20891;DHT22;10605;52.968;8.844;2023-05-29T02:49:42;9.90;99.90
20891;DHT22;10605;52.968;8.844;2023-05-29T02:52:08;9.90;99.90
20891;DHT22;10605;52.968;8.844;2023-05-29T02:54:36;9.90;99.90
20891;DHT22;10605;52.968;8.844;2023-05-29T02:57:02;10.00;99.90
20891;DHT22;10605;52.968;8.844;2023-05-29T02:59:35;9.90;99.90
20891;DHT22;10605;52.968;8.844;2023-05-29T03:02:07;9.90;99.90
20891;DHT22;10605;52.968;8.844;2023-05-29T03:04:32;9.90;99.90
20891;DHT22;10605;52.968;8.844;2023-05-29T03:06:58;9.90;99.90
20891;DHT22;10605;52.968;8.844;2023-05-29T03:09:24;9.90;99.90
20891;DHT22;10605;52.968;8.844;2023-05-29T03:11:52;10.00;99.90
20891;DHT22;10605;52.968;8.844;2023-05-29T03:14:20;9.90;99.90
20891;DHT22;10605;52.968;8.844;2023-05-29T03:16:47;9.90;99.90
20891;DHT22;10605;52.968;8.844;2023-05-29T03:19:15;9.90;99.90
20891;DHT22;10605;52.968;8.844;2023-05-29T03:21:44;10.00;99.90
20891;DHT22;10605;52.968;8.844;2023-05-29T03:24:10;10.00;99.90
20891;DHT22;10605;52.968;8.844;2023-05-29T03:26:36;9.90;99.90
20891;DHT22;10605;52.968;8.844;2023-05-29T03:29:04;9.90;99.90
20891;DHT22;10605;52.968;8.844;2023-05-29T03:31:31;9.90;99.90
20891;DHT22;10605;52.968;8.844;2023-05-29T03:33:59;9.90;99.90
20891;DHT22;10605;52.968;8.844;2023-05-29T03:36:25;9.90;99.90
20891;DHT22;10605;52.968;8.844;2023-05-29T03:38:52;10.00;99.90
20891;DHT22;10605;52.968;8.844;2023-05-29T03:41:17;10.00;99.90
20891;DHT22;10605;52.968;8.844;2023-05-29T03:44:04;10.00;99.90
20891;DHT22;10605;52.968;8.844;2023-05-29T03:46:34;9.90;99.90
20891;DHT22;10605;52.968;8.844;2023-05-29T03:49:00;10.00;99.90
20891;DHT22;10605;52.968;8.844;2023-05-29T03:51:26;9.90;99.90
20891;DHT22;10605;52.968;8.844;2023-05-29T03:53:56;10.00;99.90
20891;DHT22;10605;52.968;8.844;2023-05-29T03:56:22;10.00;99.90
20891;DHT22;10605;52.968;8.844;2023-05-29T03:58:48;10.10;99.90
20891;DHT22;10605;52.968;8.844;2023-05-29T04:01:13;10.10;99.90
20891;DHT22;10605;52.968;8.844;2023-05-29T04:03:39;10.10;99.90
20891;DHT22;10605;52.968;8.844;2023-05-29T04:06:07;10.10;99.90
20891;DHT22;10605;52.968;8.844;2023-05-29T04:08:33;10.20;99.90
20891;DHT22;10605;52.968;8.844;2023-05-29T04:11:02;10.20;99.90
20891;DHT22;10605;52.968;8.844;2023-05-29T04:13:29;10.30;99.90
20891;DHT22;10605;52.968;8.844;2023-05-29T04:16:04;10.50;99.90
20891;DHT22;10605;52.968;8.844;2023-05-29T04:18:30;10.50;99.90
20891;DHT22;10605;52.968;8.844;2023-05-29T04:20:58;10.50;99.90
20891;DHT22;10605;52.968;8.844;2023-05-29T04:23:24;10.70;99.90
20891;DHT22;10605;52.968;8.844;2023-05-29T04:25:50;10.70;99.90
20891;DHT22;10605;52.968;8.844;2023-05-29T04:28:16;10.80;99.90
20891;DHT22;10605;52.968;8.844;2023-05-29T04:30:42;11.00;99.90
20891;DHT22;10605;52.968;8.844;2023-05-29T04:33:10;10.90;99.90
20891;DHT22;10605;52.968;8.844;2023-05-29T04:35:38;10.90;99.90
20891;DHT22;10605;52.968;8.844;2023-05-29T04:38:03;11.00;99.90
20891;DHT22;10605;52.968;8.844;2023-05-29T04:40:30;11.10;99.90
20891;DHT22;10605;52.968;8.844;2023-05-29T04:42:58;11.20;99.90
20891;DHT22;10605;52.968;8.844;2023-05-29T04:45:26;11.40;99.90
20891;DHT22;10605;52.968;8.844;2023-05-29T04:47:54;11.70;99.90
20891;DHT22;10605;52.968;8.844;2023-05-29T04:50:22;11.50;99.90
20891;DHT22;10605;52.968;8.844;2023-05-29T04:52:50;11.60;99.90
20891;DHT22;10605;52.968;8.844;2023-05-29T04:55:16;11.60;99.90
20891;DHT22;10605;52.968;8.844;2023-05-29T04:57:42;11.70;99.90
20891;DHT22;10605;52.968;8.844;2023-05-29T05:00:11;12.60;99.90
20891;DHT22;10605;52.968;8.844;2023-05-29T05:02:41;13.20;99.90
20891;DHT22;10605;52.968;8.844;2023-05-29T05:05:10;13.20;99.90
20891;DHT22;10605;52.968;8.844;2023-05-29T05:07:40;13.80;99.90
20891;DHT22;10605;52.968;8.844;2023-05-29T05:10:07;13.90;99.90
20891;DHT22;10605;52.968;8.844;2023-05-29T05:12:33;13.90;99.90
20891;DHT22;10605;52.968;8.844;2023-05-29T05:14:59;14.20;99.90
20891;DHT22;10605;52.968;8.844;2023-05-29T05:17:27;14.20;99.90
20891;DHT22;10605;52.968;8.844;2023-05-29T05:19:56;14.00;99.90
20891;DHT22;10605;52.968;8.844;2023-05-29T05:22:21;13.90;99.90
20891;DHT22;10605;52.968;8.844;2023-05-29T05:24:47;14.00;99.90
20891;DHT22;10605;52.968;8.844;2023-05-29T05:27:13;13.80;99.90
20891;DHT22;10605;52.968;8.844;2023-05-29T05:29:41;13.80;99.90
20891;DHT22;10605;52.968;8.844;2023-05-29T05:32:09;13.80;99.90
20891;DHT22;10605;52.968;8.844;2023-05-29T05:34:51;13.70;99.90
20891;DHT22;10605;52.968;8.844;2023-05-29T05:37:29;13.80;99.90
20891;DHT22;10605;52.968;8.844;2023-05-29T05:40:08;13.40;99.90
20891;DHT22;10605;52.968;8.844;2023-05-29T05:42:38;13.70;99.90
20891;DHT22;10605;52.968;8.844;2023-05-29T05:45:05;13.30;99.90
20891;DHT22;10605;52.968;8.844;2023-05-29T05:47:32;13.30;99.90
20891;DHT22;10605;52.968;8.844;2023-05-29T05:50:00;13.70;99.90
20891;DHT22;10605;52.968;8.844;2023-05-29T05:52:40;14.80;99.90
20891;DHT22;10605;52.968;8.844;2023-05-29T05:55:15;15.80;99.90
20891;DHT22;10605;52.968;8.844;2023-05-29T05:57:59;16.20;99.90
20891;DHT22;10605;52.968;8.844;2023-05-29T06:00:27;16.80;99.90
20891;DHT22;10605;52.968;8.844;2023-05-29T06:02:56;17.00;99.90
20891;DHT22;10605;52.968;8.844;2023-05-29T06:05:25;17.50;99.90
20891;DHT22;10605;52.968;8.844;2023-05-29T06:07:54;17.30;99.90
20891;DHT22;10605;52.968;8.844;2023-05-29T06:10:26;17.80;99.90
20891;DHT22;10605;52.968;8.844;2023-05-29T06:12:54;17.50;99.90
20891;DHT22;10605;52.968;8.844;2023-05-29T06:15:23;18.70;99.90
20891;DHT22;10605;52.968;8.844;2023-05-29T06:17:49;19.20;99.90
20891;DHT22;10605;52.968;8.844;2023-05-29T06:20:19;19.00;99.90
20891;DHT22;10605;52.968;8.844;2023-05-29T06:22:48;18.10;99.90
20891;DHT22;10605;52.968;8.844;2023-05-29T06:25:16;18.40;99.90
20891;DHT22;10605;52.968;8.844;2023-05-29T06:27:44;18.80;99.90
20891;DHT22;10605;52.968;8.844;2023-05-29T06:30:15;19.50;99.90
20891;DHT22;10605;52.968;8.844;2023-05-29T06:32:47;19.60;98.60
20891;DHT22;10605;52.968;8.844;2023-05-29T06:35:13;19.80;96.80
20891;DHT22;10605;52.968;8.844;2023-05-29T06:37:42;20.00;95.10
20891;DHT22;10605;52.968;8.844;2023-05-29T06:40:08;19.70;94.10
20891;DHT22;10605;52.968;8.844;2023-05-29T06:42:34;19.90;93.40
20891;DHT22;10605;52.968;8.844;2023-05-29T06:45:02;19.70;93.30
20891;DHT22;10605;52.968;8.844;2023-05-29T06:47:33;19.50;94.70
20891;DHT22;10605;52.968;8.844;2023-05-29T06:49:59;19.90;94.90
20891;DHT22;10605;52.968;8.844;2023-05-29T06:52:25;20.40;92.10
20891;DHT22;10605;52.968;8.844;2023-05-29T06:55:00;20.30;92.40
20891;DHT22;10605;52.968;8.844;2023-05-29T06:57:26;20.10;91.50
20891;DHT22;10605;52.968;8.844;2023-05-29T06:59:57;20.50;91.90
20891;DHT22;10605;52.968;8.844;2023-05-29T07:02:25;21.30;90.90
20891;DHT22;10605;52.968;8.844;2023-05-29T07:04:54;22.40;84.50
20891;DHT22;10605;52.968;8.844;2023-05-29T07:07:26;21.30;87.10
20891;DHT22;10605;52.968;8.844;2023-05-29T07:47:51;23.50;72.20
20891;DHT22;10605;52.968;8.844;2023-05-29T07:50:17;23.50;68.20
20891;DHT22;10605;52.968;8.844;2023-05-29T07:52:57;24.20;64.90
20891;DHT22;10605;52.968;8.844;2023-05-29T08:16:15;26.90;52.40
20891;DHT22;10605;52.968;8.844;2023-05-29T08:18:42;27.50;49.40
20891;DHT22;10605;52.968;8.844;2023-05-29T08:21:08;27.50;48.50
20891;DHT22;10605;52.968;8.844;2023-05-29T08:23:35;26.60;47.70
20891;DHT22;10605;52.968;8.844;2023-05-29T08:26:01;26.00;49.30
20891;DHT22;10605;52.968;8.844;2023-05-29T08:28:28;25.90;50.60
20891;DHT22;10605;52.968;8.844;2023-05-29T08:30:54;26.10;48.60
20891;DHT22;10605;52.968;8.844;2023-05-29T08:33:19;26.30;47.50
20891;DHT22;10605;52.968;8.844;2023-05-29T08:35:45;26.00;46.90
20891;DHT22;10605;52.968;8.844;2023-05-29T08:38:11;27.10;48.30
20891;DHT22;10605;52.968;8.844;2023-05-29T08:40:37;27.20;46.30
20891;DHT22;10605;52.968;8.844;2023-05-29T08:43:10;26.80;44.90
20891;DHT22;10605;52.968;8.844;2023-05-29T08:45:44;26.90;44.80
20891;DHT22;10605;52.968;8.844;2023-05-29T08:48:11;27.60;43.60
20891;DHT22;10605;52.968;8.844;2023-05-29T08:50:46;28.00;42.80
20891;DHT22;10605;52.968;8.844;2023-05-29T08:53:15;28.00;43.20
20891;DHT22;10605;52.968;8.844;2023-05-29T08:55:42;28.50;42.40
20891;DHT22;10605;52.968;8.844;2023-05-29T08:58:08;28.80;39.50
20891;DHT22;10605;52.968;8.844;2023-05-29T09:00:35;28.80;40.30
20891;DHT22;10605;52.968;8.844;2023-05-29T09:03:02;28.90;39.80
20891;DHT22;10605;52.968;8.844;2023-05-29T09:05:28;28.90;38.40
20891;DHT22;10605;52.968;8.844;2023-05-29T09:07:55;28.90;37.80
20891;DHT22;10605;52.968;8.844;2023-05-29T09:10:21;28.20;38.10
20891;DHT22;10605;52.968;8.844;2023-05-29T09:12:53;27.30;39.40
20891;DHT22;10605;52.968;8.844;2023-05-29T09:15:21;27.90;41.20
20891;DHT22;10605;52.968;8.844;2023-05-29T09:17:55;28.10;41.60
20891;DHT22;10605;52.968;8.844;2023-05-29T09:20:22;28.80;38.00
20891;DHT22;10605;52.968;8.844;2023-05-29T09:23:00;29.00;37.50
20891;DHT22;10605;52.968;8.844;2023-05-29T09:25:31;29.70;36.80
20891;DHT22;10605;52.968;8.844;2023-05-29T09:28:05;30.30;35.80
20891;DHT22;10605;52.968;8.844;2023-05-29T09:30:45;30.30;34.20
20891;DHT22;10605;52.968;8.844;2023-05-29T09:33:13;29.50;35.70
20891;DHT22;10605;52.968;8.844;2023-05-29T09:35:45;30.50;34.60
20891;DHT22;10605;52.968;8.844;2023-05-29T09:38:16;31.10;33.60
20891;DHT22;10605;52.968;8.844;2023-05-29T09:40:42;31.00;30.80
20891;DHT22;10605;52.968;8.844;2023-05-29T09:43:12;31.50;31.10
20891;DHT22;10605;52.968;8.844;2023-05-29T09:45:48;31.10;30.20
20891;DHT22;10605;52.968;8.844;2023-05-29T09:48:15;29.30;31.80
20891;DHT22;10605;52.968;8.844;2023-05-29T09:50:41;30.00;31.90
20891;DHT22;10605;52.968;8.844;2023-05-29T09:55:48;31.20;29.30
20891;DHT22;10605;52.968;8.844;2023-05-29T09:58:17;31.00;28.70
20891;DHT22;10605;52.968;8.844;2023-05-29T10:00:43;31.00;29.10
20891;DHT22;10605;52.968;8.844;2023-05-29T10:03:10;31.30;28.30
20891;DHT22;10605;52.968;8.844;2023-05-29T10:05:39;30.50;30.20
20891;DHT22;10605;52.968;8.844;2023-05-29T10:08:11;30.40;32.70
20891;DHT22;10605;52.968;8.844;2023-05-29T10:10:37;31.00;32.10
20891;DHT22;10605;52.968;8.844;2023-05-29T10:13:06;31.00;31.00
20891;DHT22;10605;52.968;8.844;2023-05-29T10:15:36;31.10;30.90
20891;DHT22;10605;52.968;8.844;2023-05-29T10:18:02;32.30;29.00
20891;DHT22;10605;52.968;8.844;2023-05-29T10:20:31;31.10;28.40
20891;DHT22;10605;52.968;8.844;2023-05-29T10:23:00;31.70;27.70
20891;DHT22;10605;52.968;8.844;2023-05-29T10:25:31;31.70;27.90
20891;DHT22;10605;52.968;8.844;2023-05-29T10:27:58;31.50;27.70
20891;DHT22;10605;52.968;8.844;2023-05-29T10:30:27;32.40;27.60
20891;DHT22;10605;52.968;8.844;2023-05-29T10:33:09;31.50;28.30
20891;DHT22;10605;52.968;8.844;2023-05-29T10:36:22;32.10;27.80
20891;DHT22;10605;52.968;8.844;2023-05-29T10:38:28;31.50;27.70
20891;DHT22;10605;52.968;8.844;2023-05-29T10:40:54;31.50;27.40
20891;DHT22;10605;52.968;8.844;2023-05-29T10:43:30;32.20;26.70
20891;DHT22;10605;52.968;8.844;2023-05-29T10:45:57;32.50;26.40
20891;DHT22;10605;52.968;8.844;2023-05-29T10:50:55;33.20;24.30
20891;DHT22;10605;52.968;8.844;2023-05-29T10:53:32;32.10;26.20
20891;DHT22;10605;52.968;8.844;2023-05-29T10:55:59;32.40;25.50
20891;DHT22;10605;52.968;8.844;2023-05-29T10:58:27;32.20;25.60
20891;DHT22;10605;52.968;8.844;2023-05-29T11:00:54;33.20;26.20
20891;DHT22;10605;52.968;8.844;2023-05-29T11:03:24;33.60;24.60
20891;DHT22;10605;52.968;8.844;2023-05-29T11:08:35;32.60;24.90
20891;DHT22;10605;52.968;8.844;2023-05-29T11:11:01;32.20;25.50
20891;DHT22;10605;52.968;8.844;2023-05-29T11:13:37;32.00;24.70
20891;DHT22;10605;52.968;8.844;2023-05-29T11:16:13;32.80;24.60
20891;DHT22;10605;52.968;8.844;2023-05-29T11:18:47;33.40;25.80
20891;DHT22;10605;52.968;8.844;2023-05-29T11:24:06;34.80;23.10
20891;DHT22;10605;52.968;8.844;2023-05-29T11:26:33;33.30;23.30
20891;DHT22;10605;52.968;8.844;2023-05-29T11:29:04;31.80;25.40
20891;DHT22;10605;52.968;8.844;2023-05-29T11:31:33;32.50;25.10
20891;DHT22;10605;52.968;8.844;2023-05-29T11:34:01;32.40;24.40
20891;DHT22;10605;52.968;8.844;2023-05-29T11:36:30;31.80;25.10
20891;DHT22;10605;52.968;8.844;2023-05-29T11:38:57;31.10;25.90
20891;DHT22;10605;52.968;8.844;2023-05-29T11:41:23;30.50;26.40
20891;DHT22;10605;52.968;8.844;2023-05-29T11:44:01;31.80;26.30
20891;DHT22;10605;52.968;8.844;2023-05-29T11:46:28;31.60;25.20
20891;DHT22;10605;52.968;8.844;2023-05-29T11:48:56;32.80;25.40
20891;DHT22;10605;52.968;8.844;2023-05-29T11:51:22;33.00;25.20
20891;DHT22;10605;52.968;8.844;2023-05-29T11:53:48;32.50;24.00
20891;DHT22;10605;52.968;8.844;2023-05-29T11:56:14;33.20;24.10
20891;DHT22;10605;52.968;8.844;2023-05-29T11:58:40;32.40;23.90
20891;DHT22;10605;52.968;8.844;2023-05-29T12:01:07;33.20;24.00
20891;DHT22;10605;52.968;8.844;2023-05-29T12:03:40;31.90;24.60
20891;DHT22;10605;52.968;8.844;2023-05-29T12:06:08;31.80;25.20
20891;DHT22;10605;52.968;8.844;2023-05-29T12:08:33;32.20;24.70
20891;DHT22;10605;52.968;8.844;2023-05-29T12:10:59;32.60;23.40
20891;DHT22;10605;52.968;8.844;2023-05-29T12:13:25;33.40;23.70
20891;DHT22;10605;52.968;8.844;2023-05-29T12:15:56;33.60;23.40
20891;DHT22;10605;52.968;8.844;2023-05-29T12:18:23;34.70;23.00
20891;DHT22;10605;52.968;8.844;2023-05-29T12:20:49;32.70;23.90
20891;DHT22;10605;52.968;8.844;2023-05-29T12:23:17;33.40;23.90
20891;DHT22;10605;52.968;8.844;2023-05-29T12:25:46;33.10;23.70
20891;DHT22;10605;52.968;8.844;2023-05-29T12:28:16;33.00;25.40
20891;DHT22;10605;52.968;8.844;2023-05-29T12:30:46;32.70;24.90
20891;DHT22;10605;52.968;8.844;2023-05-29T12:33:33;34.20;24.10
20891;DHT22;10605;52.968;8.844;2023-05-29T12:36:09;33.50;23.80
20891;DHT22;10605;52.968;8.844;2023-05-29T12:38:49;34.60;23.10
20891;DHT22;10605;52.968;8.844;2023-05-29T12:41:29;32.80;24.20
20891;DHT22;10605;52.968;8.844;2023-05-29T12:44:00;33.40;23.80
20891;DHT22;10605;52.968;8.844;2023-05-29T12:46:27;34.40;23.40
20891;DHT22;10605;52.968;8.844;2023-05-29T12:48:53;33.70;23.50
20891;DHT22;10605;52.968;8.844;2023-05-29T12:51:24;33.30;23.40
20891;DHT22;10605;52.968;8.844;2023-05-29T12:53:50;33.20;22.80
20891;DHT22;10605;52.968;8.844;2023-05-29T12:56:16;33.30;22.60
20891;DHT22;10605;52.968;8.844;2023-05-29T12:58:42;30.90;26.10
20891;DHT22;10605;52.968;8.844;2023-05-29T13:01:12;32.90;24.20
20891;DHT22;10605;52.968;8.844;2023-05-29T13:03:39;33.10;22.20
20891;DHT22;10605;52.968;8.844;2023-05-29T13:06:05;32.80;22.80
20891;DHT22;10605;52.968;8.844;2023-05-29T13:08:31;31.50;24.20
20891;DHT22;10605;52.968;8.844;2023-05-29T13:10:57;31.70;23.50
20891;DHT22;10605;52.968;8.844;2023-05-29T13:13:22;32.70;21.80
20891;DHT22;10605;52.968;8.844;2023-05-29T13:15:48;30.30;24.80
20891;DHT22;10605;52.968;8.844;2023-05-29T13:18:14;30.70;25.80
20891;DHT22;10605;52.968;8.844;2023-05-29T13:20:40;28.40;28.00
20891;DHT22;10605;52.968;8.844;2023-05-29T13:23:05;25.30;33.20
20891;DHT22;10605;52.968;8.844;2023-05-29T13:25:32;24.20;37.50
20891;DHT22;10605;52.968;8.844;2023-05-29T13:27:58;22.80;42.30
20891;DHT22;10605;52.968;8.844;2023-05-29T13:30:23;22.40;45.70
20891;DHT22;10605;52.968;8.844;2023-05-29T13:32:52;22.00;47.70
20891;DHT22;10605;52.968;8.844;2023-05-29T13:35:19;21.90;48.00
20891;DHT22;10605;52.968;8.844;2023-05-29T13:37:45;21.50;48.80
20891;DHT22;10605;52.968;8.844;2023-05-29T13:40:11;21.20;51.60
20891;DHT22;10605;52.968;8.844;2023-05-29T13:42:39;21.00;52.40
20891;DHT22;10605;52.968;8.844;2023-05-29T13:45:05;20.80;53.60
20891;DHT22;10605;52.968;8.844;2023-05-29T13:47:32;20.50;52.60
20891;DHT22;10605;52.968;8.844;2023-05-29T13:49:58;20.30;54.80
20891;DHT22;10605;52.968;8.844;2023-05-29T13:52:27;20.30;56.40
20891;DHT22;10605;52.968;8.844;2023-05-29T13:54:53;20.10;57.60
20891;DHT22;10605;52.968;8.844;2023-05-29T13:57:19;20.20;56.90
20891;DHT22;10605;52.968;8.844;2023-05-29T13:59:45;20.20;57.20
20891;DHT22;10605;52.968;8.844;2023-05-29T14:02:11;20.00;57.80
20891;DHT22;10605;52.968;8.844;2023-05-29T14:04:37;19.90;57.50
20891;DHT22;10605;52.968;8.844;2023-05-29T14:07:04;20.00;56.80
20891;DHT22;10605;52.968;8.844;2023-05-29T14:09:29;19.70;57.40
20891;DHT22;10605;52.968;8.844;2023-05-29T14:11:57;19.80;60.80
20891;DHT22;10605;52.968;8.844;2023-05-29T14:14:23;19.70;58.80
20891;DHT22;10605;52.968;8.844;2023-05-29T14:16:50;19.60;59.20
20891;DHT22;10605;52.968;8.844;2023-05-29T14:19:17;19.40;59.80
20891;DHT22;10605;52.968;8.844;2023-05-29T14:21:43;19.50;60.10
20891;DHT22;10605;52.968;8.844;2023-05-29T14:24:09;19.50;59.80
20891;DHT22;10605;52.968;8.844;2023-05-29T14:26:34;19.40;60.70
20891;DHT22;10605;52.968;8.844;2023-05-29T14:29:01;19.50;63.10
20891;DHT22;10605;52.968;8.844;2023-05-29T14:31:26;19.40;61.00
20891;DHT22;10605;52.968;8.844;2023-05-29T14:33:52;19.40;60.90
20891;DHT22;10605;52.968;8.844;2023-05-29T14:36:18;19.10;61.60
20891;DHT22;10605;52.968;8.844;2023-05-29T14:38:43;19.40;62.40
20891;DHT22;10605;52.968;8.844;2023-05-29T14:41:11;19.60;63.50
20891;DHT22;10605;52.968;8.844;2023-05-29T14:43:38;19.30;61.30
20891;DHT22;10605;52.968;8.844;2023-05-29T14:46:05;19.40;62.10
20891;DHT22;10605;52.968;8.844;2023-05-29T14:48:30;19.10;61.50
20891;DHT22;10605;52.968;8.844;2023-05-29T14:50:56;19.00;65.60
20891;DHT22;10605;52.968;8.844;2023-05-29T14:53:22;19.00;63.20
20891;DHT22;10605;52.968;8.844;2023-05-29T14:55:49;19.00;62.60
20891;DHT22;10605;52.968;8.844;2023-05-29T14:58:14;19.20;63.10
20891;DHT22;10605;52.968;8.844;2023-05-29T15:00:40;19.10;63.70
20891;DHT22;10605;52.968;8.844;2023-05-29T15:03:06;19.10;63.30
20891;DHT22;10605;52.968;8.844;2023-05-29T15:05:31;19.00;63.60
20891;DHT22;10605;52.968;8.844;2023-05-29T15:07:57;18.90;64.90
20891;DHT22;10605;52.968;8.844;2023-05-29T15:10:28;19.10;64.60
20891;DHT22;10605;52.968;8.844;2023-05-29T15:12:54;19.10;63.30
20891;DHT22;10605;52.968;8.844;2023-05-29T15:15:26;19.00;64.30
20891;DHT22;10605;52.968;8.844;2023-05-29T15:17:53;18.90;66.60
20891;DHT22;10605;52.968;8.844;2023-05-29T15:20:22;19.00;66.60
20891;DHT22;10605;52.968;8.844;2023-05-29T15:22:47;19.00;66.00
20891;DHT22;10605;52.968;8.844;2023-05-29T15:25:14;19.10;65.70
20891;DHT22;10605;52.968;8.844;2023-05-29T15:27:40;19.20;66.20
20891;DHT22;10605;52.968;8.844;2023-05-29T15:30:16;19.10;65.80
20891;DHT22;10605;52.968;8.844;2023-05-29T15:32:44;19.00;64.30
20891;DHT22;10605;52.968;8.844;2023-05-29T15:35:12;19.00;62.70
20891;DHT22;10605;52.968;8.844;2023-05-29T15:37:39;18.90;63.90
20891;DHT22;10605;52.968;8.844;2023-05-29T15:40:06;19.10;65.10
20891;DHT22;10605;52.968;8.844;2023-05-29T15:42:32;19.00;67.30
20891;DHT22;10605;52.968;8.844;2023-05-29T15:44:58;19.00;66.00
20891;DHT22;10605;52.968;8.844;2023-05-29T15:47:24;19.10;65.40
20891;DHT22;10605;52.968;8.844;2023-05-29T15:49:50;19.10;65.40
20891;DHT22;10605;52.968;8.844;2023-05-29T15:52:16;19.00;61.70
20891;DHT22;10605;52.968;8.844;2023-05-29T15:54:42;18.90;65.00
20891;DHT22;10605;52.968;8.844;2023-05-29T15:57:08;18.80;63.80
20891;DHT22;10605;52.968;8.844;2023-05-29T15:59:34;18.70;64.10
20891;DHT22;10605;52.968;8.844;2023-05-29T16:02:00;18.80;64.20
20891;DHT22;10605;52.968;8.844;2023-05-29T16:04:26;18.60;66.00
20891;DHT22;10605;52.968;8.844;2023-05-29T16:06:52;18.50;65.30
20891;DHT22;10605;52.968;8.844;2023-05-29T16:09:18;18.50;67.40
20891;DHT22;10605;52.968;8.844;2023-05-29T16:11:44;18.40;68.90
20891;DHT22;10605;52.968;8.844;2023-05-29T16:14:09;18.70;66.80
20891;DHT22;10605;52.968;8.844;2023-05-29T16:16:35;18.80;65.90
20891;DHT22;10605;52.968;8.844;2023-05-29T16:19:03;18.50;65.00
20891;DHT22;10605;52.968;8.844;2023-05-29T16:21:29;18.50;65.30
20891;DHT22;10605;52.968;8.844;2023-05-29T16:23:56;18.60;65.20
20891;DHT22;10605;52.968;8.844;2023-05-29T16:26:27;18.50;66.20
20891;DHT22;10605;52.968;8.844;2023-05-29T16:28:57;18.40;66.80
20891;DHT22;10605;52.968;8.844;2023-05-29T16:31:22;18.30;67.90
20891;DHT22;10605;52.968;8.844;2023-05-29T16:33:48;18.40;69.40
20891;DHT22;10605;52.968;8.844;2023-05-29T16:36:14;18.30;68.40
20891;DHT22;10605;52.968;8.844;2023-05-29T16:38:41;18.30;67.80
20891;DHT22;10605;52.968;8.844;2023-05-29T16:41:06;18.30;68.00
20891;DHT22;10605;52.968;8.844;2023-05-29T16:43:32;18.30;66.80
20891;DHT22;10605;52.968;8.844;2023-05-29T16:45:58;18.40;66.90
20891;DHT22;10605;52.968;8.844;2023-05-29T16:48:24;18.40;67.50
20891;DHT22;10605;52.968;8.844;2023-05-29T16:50:50;18.40;65.70
20891;DHT22;10605;52.968;8.844;2023-05-29T16:53:16;18.40;65.40
20891;DHT22;10605;52.968;8.844;2023-05-29T16:55:42;18.20;64.80
20891;DHT22;10605;52.968;8.844;2023-05-29T16:58:07;18.00;65.40